Ashford, WA

11:15 AM PDT on September 22, 2014 (GMT -0700)
Mineral Creek Rd | Change Station
CLOSE
Current Station
Personal Weather Station
Location: Mineral, WA
Elevation: 1411 ft
Nearby Weather Stations

Elev 1411 ft 46.72 °N, 122.15 °W | Updated 28 seconds ago

Overcast
Overcast
64.0 °F
Feels Like 64.0 °F
N
9.6
Wind Variable Wind from WSW
Gusts 10.5 mph

Today
High -- | Low -- °F
--% Chance of Precip.
Yesterday
High -- | Low -- °F
Precip. -- in
6:54 AM 7:05 PM
Waning Crescent, 2% visible
Pressure 30.02 in
Visibility 10.0 miles
Clouds Mostly Cloudy 3300 ft
Dew Point 56 °F
Humidity 76%
Rainfall 0.00 in
Snow Depth 0 in , 0 in , 0 in
UV 2 out of 12
Pollen 1.60 out of 12
Air Quality Not available.
Flu Activity Not available.
METAR KTCM 221758Z AUTO 22009KT 10SM BKN033 19/14 A3001 RMK AO2 SLP165 T01900136 10191 20157 52004 $

More Conditions Fewer Conditions

Pressure 30.02 in
Visibility 10.0 miles
Clouds Mostly Cloudy 3300 ft
Dew Point 56 °F
Humidity 76%
Rainfall 0.00 in
Snow Depth 0 in , 0 in , 0 in
UV 2 out of 12
Pollen 1.60 out of 12
Air Quality Not available.
Flu Activity Not available.
METAR KTCM 221758Z AUTO 22009KT 10SM BKN033 19/14 A3001 RMK AO2 SLP165 T01900136 10191 20157 52004 $

More Conditions Fewer Conditions

10-Day Weather Forecast

Almanac

Astronomy

Sep. 22, 2014 Rise Set
Actual Time 6:54 AM PDT 7:05 PM PDT
Civil Twilight 6:24 AM PDT 7:35 PM PDT
Nautical Twilight 5:49 AM PDT 8:11 PM PDT
Astronomical Twilight 5:12 AM PDT 8:47 PM PDT
Moon 5:24 AM PDT 6:17 PM PDT
Length of Visible Light 13h 10m
Length of Day
12h 10m
Tomorrow will be 3m 18s shorter.
Waning Crescent, 2% of the Moon is Illuminated
Today
Waning Crescent
Sep 24
New
Oct 1
First Quarter
Oct 8
Full
Oct 15
Last Quarter

Today's Extremes

State Highs State Lows

Community

WunderPhotos

Upload Photos

1,755,498 photos uploaded!

WunderBlogs® & News

Nearby

Snow Depth

Station Depth Elevation
Alpine Meadows 0 in 3500 ft
Morse Lake 0 in 5400 ft
June Lake 0 in 3340 ft
Burnt Mountain 0 in 4200 ft
Surprise Lakes 1 in 4250 ft

Earthquake Activity

City Distance Mag. Time & Date
No recent earthquake activity has been reported nearby.
Minimum magnitude displayed is 2.5.

Coastal Water Temperatures

Place Temperature
No Stations Reporting

Nearby Weather Stations